Terminal Aerodrome Forecast
Issued by NWS Nashville, TN

Home | Current Version | Previous Version | Text Only | Print | Product List | Glossary On
Versions: 1 2 3 4 5 6 7 8 9 10 11 12 13 14 15 16 17
000
FTUS44 KOHX 010520
TAFBNA
TAF
KBNA 010520Z 0106/0206 VRB04KT P6SM FEW250
      TEMPO 0109/0112 4SM BR
     FM011300 07003KT P6SM SCT250
     FM011800 06005KT P6SM SCT060 SCT250
     FM020000 04003KT P6SM FEW060=

USA.gov is the U.S. government's official web portal to all federal, state and local government web resources and services.